Saturday, December 15, 2018, 1:43 PM GMT
Back to Local

CYKF, Waterloo Well

Location: , , Canada Lat: 43.467
Local Time: 1:43 PM GMT (13:43 GMT) Lon: -80.383
Time Zone: GMT Elev: 1040 ft

Show me the last for .
Show Coded

Time T Td Feel RH Dir Speed Gust Alt SLP Vis Weather Sky Remarks
2018-12-15 13:00 30 30 24 100 360° 6 - 30.20 30.24 9 BKN250 None
2018-12-15 12:00 30 28 25 92 350° 5 - 30.21 30.24 7 BKN240 None
2018-12-15 11:00 30 30 25 100 330° 5 - 30.20 30.24 6 BR FEW230 BKN250 None
2018-12-15 10:00 30 30 25 100 10° 5 - 30.21 30.24 8 BKN250 None
2018-12-15 09:35 32 30 26 92 330° 6 - 30.19 30.23 6 BR FEW004 BKN240 None
2018-12-15 09:10 30 30 23 100 330° 7 - 30.18 30.22 4 BR SCT002 BKN240 None
2018-12-15 09:00 30 30 22 100 320° 9 - 30.18 30.21 4 BR BKN002 None
2018-12-15 08:49 30 30 23 100 320° 7 - 30.17 30.20 3 BR BKN002 None
2018-12-15 08:38 30 30 24 100 310° 6 - 30.16 30.20 2 BR OVC002 None
2018-12-15 08:00 30 30 25 100 320° 5 - 30.14 30.18 1 BR OVC002 None
2018-12-15 07:19 32 30 26 92 320° 6 - 30.14 30.18 0 BR VV002 None
2018-12-15 07:17 32 32 27 100 320° 5 - 30.14 30.18 0 FZFG VV002 None
2018-12-15 07:00 32 32 26 100 320° 6 - 30.14 30.17 0 FZFG VV002 None
2018-12-15 06:59 32 32 27 100 320° 5 - 30.14 30.17 0 FZFG VV002 None
2018-12-15 06:00 34 32 31 93 300° 3 - 30.13 30.17 0 FG VV002 None
2018-12-15 05:00 34 34 28 100 320° 7 - 30.13 30.17 0 FG VV002 None
2018-12-15 04:00 36 36 33 100 300° 3 - 30.15 30.19 0 FG VV002 None
2018-12-15 03:47 36 36 32 100 290° 5 - 30.15 30.19 0 FG VV002 None
2018-12-15 03:37 36 36 29 100 290° 8 - 30.14 30.18 0 FG VV002 None
2018-12-15 03:12 37 36 33 93 300° 6 - 30.15 30.19 0 FG VV002 None
2018-12-15 03:00 37 36 31 93 280° 8 - 30.15 30.19 0 FG VV002 None
2018-12-15 02:25 37 37 31 100 270° 8 - 30.16 30.19 0 FG VV002 None
2018-12-15 02:07 37 37 33 100 300° 6 - 30.16 30.20 0 FG VV002 None
2018-12-15 02:00 37 37 34 100 300° 5 - 30.16 30.20 0 BR OVC002 None
2018-12-15 01:36 37 37 33 100 300° 6 - 30.15 30.19 1 BR OVC004 None
2018-12-15 01:15 34 34 30 100 300° 5 - 30.14 30.18 1 BR BKN006 None
2018-12-15 01:00 36 36 - 100 240° 2 - 30.13 30.17 1 BR CLR None
2018-12-15 00:55 36 34 33 93 220° 3 - 30.14 30.18 1 BR CLR None
2018-12-15 00:51 36 36 32 100 220° 5 - 30.13 30.17 2 BR CLR None
2018-12-15 00:21 37 36 35 93 230° 3 - 30.14 30.18 3 BR SCT014 None
2018-12-15 00:00 39 37 37 93 250° 3 - 30.14 30.18 3 BR BKN014 OVC020 None
2018-12-14 23:00 39 37 37 93 280° 3 - 30.15 30.19 5 BR FEW012 BKN018 OVC027 None
2018-12-14 22:51 39 37 37 93 280° 3 - 30.16 30.19 5 BR SCT012 BKN023 OVC027 None
2018-12-14 22:28 39 37 37 93 260° 3 - 30.14 30.18 5 BR SCT014 OVC033 None
2018-12-14 22:20 39 37 35 93 280° 6 - 30.15 30.18 5 BR BKN014 OVC035 None
2018-12-14 22:00 39 37 36 93 280° 5 - 30.15 30.18 5 BR FEW016 OVC035 None
2018-12-14 21:00 41 37 37 86 220° 6 - 30.12 30.16 5 BR SCT038 BKN045 OVC060 None
2018-12-14 20:00 41 37 38 86 240° 5 - 30.09 30.13 5 BR BKN040 BKN047 OVC190 None
2018-12-14 19:00 41 37 37 86 190° 6 - 30.10 30.14 4 BR BKN046 BKN080 OVC190 None
2018-12-14 18:03 39 37 34 93 170° 7 - 30.12 30.16 3 BR BKN049 OVC095 None
2018-12-14 18:00 39 37 34 93 180° 8 - 30.12 30.16 2 BR BKN049 BKN095 None
2018-12-14 17:40 39 37 36 93 180° 5 - 30.13 30.16 2 BR FEW005 SCT026 BKN075 BKN100 Pressure falling rapidly
2018-12-14 17:25 37 37 34 100 200° 5 - 30.14 30.18 1 BR SCT005 SCT016 BKN026 OVC075 None
2018-12-14 17:18 37 37 34 100 190° 5 - 30.14 30.18 1 BR SCT005 BKN016 BKN075 None
2018-12-14 17:00 37 37 - 100 170° 2 - 30.15 30.19 2 BR FEW005 OVC016 None
2018-12-14 16:54 37 36 - 93 160° 2 - 30.15 30.19 2 BR OVC016 None
2018-12-14 16:40 37 36 34 93 160° 5 - 30.16 30.20 2 -RA BR SCT005 OVC016 None
2018-12-14 16:35 37 36 34 93 150° 5 - 30.16 30.20 1 -RA BR SCT005 OVC016 None
2018-12-14 16:33 37 36 35 93 150° 3 - 30.16 30.20 1 -RA BR BKN005 OVC016 None
2018-12-14 16:07 36 36 33 100 150° 3 - 30.18 30.21 1 BR BKN005 BKN018 OVC030 None
2018-12-14 16:00 36 36 32 100 160° 5 - 30.18 30.22 1 -RA BR BKN005 BKN018 OVC030 None
2018-12-14 15:55 36 36 32 100 160° 5 - 30.18 30.22 1 -RA BR BKN005 BKN018 OVC030 None
2018-12-14 15:44 36 36 33 100 170° 3 - 30.19 30.23 1 -RA BR SCT005 OVC018 None
2018-12-14 15:32 36 36 32 100 160° 5 - 30.19 30.23 1 -RA BR BKN005 OVC018 None
2018-12-14 15:00 36 36 - 100 Variable 2 - 30.21 30.25 1 -RA BR OVC007 None
2018-12-14 14:36 36 34 33 93 180° 3 - 30.21 30.25 1 -RA BR OVC011 None
2018-12-14 14:01 36 34 - 93 140° 2 - 30.20 30.24 1 -RA BR BKN015 BKN029 OVC065 None
2018-12-14 14:00 36 34 - 93 140° 2 - 30.19 30.23 1 -RA BR SCT015 BKN029 OVC065 None

Support USWX by starting your Amazon purchase here.